Time;durP1;ratioP1;P1;durP2;ratioP2;P2;SDS_P1;SDS_P2;PMS_P1;PMS_P2;Temp;Humidity;BMP_temperature;BMP_pressure;BME280_temperature;BME280_humidity;BME280_pressure;Samples;Min_cycle;Max_cycle;Signal;HPM_P1;HPM_P2
2021/12/18 00:02:12;;;;;;;18.67;2.90;;;6.80;98.20;;;;;;4912823;29;20058;-68
2021/12/18 00:04:38;;;;;;;25.20;3.03;;;6.80;98.60;;;;;;4894913;29;20048;-67
2021/12/18 00:07:06;;;;;;;17.35;2.42;;;6.80;98.20;;;;;;4911419;29;20467;-67
2021/12/18 00:09:33;;;;;;;16.02;2.75;;;6.80;98.20;;;;;;4913372;29;20048;-68
2021/12/18 00:12:00;;;;;;;24.65;2.80;;;6.80;98.20;;;;;;4861057;29;20045;-68
2021/12/18 00:14:26;;;;;;;26.35;3.05;;;6.80;98.20;;;;;;4879349;29;20044;-68
2021/12/18 00:16:52;;;;;;;21.33;3.47;;;6.80;98.20;;;;;;4908064;29;20036;-68
2021/12/18 00:19:24;;;;;;;27.77;2.88;;;6.80;98.20;;;;;;4912712;29;20081;-67
2021/12/18 00:21:50;;;;;;;24.40;2.90;;;6.80;98.20;;;;;;4894732;29;20052;-67
2021/12/18 00:24:16;;;;;;;24.25;3.35;;;6.80;98.20;;;;;;4894467;29;20059;-68
2021/12/18 00:26:41;;;;;;;27.65;3.30;;;6.80;98.20;;;;;;4895814;29;20100;-68
2021/12/18 00:29:07;;;;;;;24.40;3.05;;;6.80;98.30;;;;;;4892121;29;20052;-68
2021/12/18 00:31:33;;;;;;;16.20;2.60;;;6.80;98.30;;;;;;4879632;29;20037;-68
2021/12/18 00:33:59;;;;;;;19.00;3.00;;;6.80;98.30;;;;;;4893246;29;20056;-68
2021/12/18 00:36:25;;;;;;;10.75;2.75;;;6.80;98.30;;;;;;4908766;29;20048;-67
2021/12/18 00:38:51;;;;;;;14.68;3.00;;;6.80;98.30;;;;;;4886081;29;20852;-67
2021/12/18 00:41:35;;;;;;;18.02;2.80;;;6.70;98.30;;;;;;4894286;29;20063;-68
2021/12/18 00:44:02;;;;;;;14.43;2.63;;;6.70;98.30;;;;;;4894433;29;20080;-67
2021/12/18 00:46:38;;;;;;;13.57;3.00;;;6.70;98.30;;;;;;4893021;29;20055;-68
2021/12/18 00:49:06;;;;;;;10.95;2.30;;;6.70;98.30;;;;;;4895028;29;20060;-68
2021/12/18 00:51:33;;;;;;;5.10;2.10;;;6.70;98.30;;;;;;4910413;29;20522;-68
2021/12/18 00:53:59;;;;;;;8.63;1.98;;;6.70;98.30;;;;;;4892982;29;20051;-68
2021/12/18 00:56:25;;;;;;;16.02;2.40;;;6.70;98.30;;;;;;4911489;29;20059;-68
2021/12/18 00:58:51;;;;;;;21.77;2.88;;;6.70;98.30;;;;;;4893730;29;20354;-68
2021/12/18 01:01:22;;;;;;;27.05;3.30;;;6.70;98.30;;;;;;4876627;29;20091;-68
2021/12/18 01:03:51;;;;;;;22.75;2.95;;;6.70;98.30;;;;;;4909635;29;20040;-68
2021/12/18 01:06:21;;;;;;;19.40;2.55;;;6.70;98.30;;;;;;4879382;29;20056;-68
2021/12/18 01:08:52;;;;;;;12.18;2.97;;;6.70;98.40;;;;;;4909904;29;20546;-67
2021/12/18 01:16:41;;;;;;;9.57;2.33;;;6.70;98.60;;;;;;4884039;29;20059;-68
2021/12/18 01:24:36;;;;;;;9.20;1.83;;;6.70;98.90;;;;;;4892195;29;20056;-68
2021/12/18 01:27:02;;;;;;;40.58;1.85;;;6.60;98.90;;;;;;4878935;29;20054;-68
2021/12/18 01:29:28;;;;;;;43.00;1.73;;;6.60;98.90;;;;;;4892795;29;20051;-68
2021/12/18 01:31:54;;;;;;;36.85;2.30;;;6.60;98.90;;;;;;4878501;29;20043;-68
2021/12/18 01:34:19;;;;;;;43.85;2.90;;;6.60;99.00;;;;;;4877312;29;20064;-68
2021/12/18 01:36:46;;;;;;;29.20;2.65;;;6.60;99.00;;;;;;4891424;29;20052;-68
2021/12/18 01:39:12;;;;;;;18.25;2.47;;;6.60;99.10;;;;;;4877422;29;20099;-68
2021/12/18 01:41:58;;;;;;;18.52;3.00;;;6.70;99.10;;;;;;4893946;29;20487;-68
2021/12/18 01:52:22;;;;;;;31.35;4.05;;;6.60;99.30;;;;;;4892449;29;20691;-68
2021/12/18 01:54:48;;;;;;;45.55;3.60;;;6.60;99.40;;;;;;4885698;29;20055;-68
2021/12/18 01:57:15;;;;;;;40.38;3.20;;;6.70;99.50;;;;;;4893478;29;20517;-68
2021/12/18 01:59:46;;;;;;;46.30;3.47;;;6.70;99.50;;;;;;4892580;29;20482;-68
2021/12/18 02:02:12;;;;;;;37.25;3.67;;;6.70;99.60;;;;;;4893787;29;20048;-68
2021/12/18 02:04:38;;;;;;;50.33;4.05;;;6.70;99.80;;;;;;4890931;29;20479;-68
2021/12/18 02:07:04;;;;;;;33.53;3.25;;;6.70;99.70;;;;;;4877938;29;20411;-68
2021/12/18 02:12:16;;;;;;;51.97;4.43;;;6.70;99.80;;;;;;4892914;29;20051;-68
2021/12/18 02:20:23;;;;;;;29.85;3.50;;;6.70;99.90;;;;;;4880393;29;20487;-68
2021/12/18 02:22:50;;;;;;;27.52;3.50;;;6.70;99.90;;;;;;4893720;29;20055;-68
2021/12/18 02:25:16;;;;;;;36.45;3.85;;;6.80;99.90;;;;;;4888493;29;20475;-68
2021/12/18 02:27:42;;;;;;;45.42;4.35;;;6.70;99.90;;;;;;4877047;29;20048;-68
2021/12/18 02:30:10;;;;;;;81.07;5.10;;;6.80;99.90;;;;;;4891638;29;20044;-68
2021/12/18 02:32:36;;;;;;;169.10;5.97;;;6.70;99.90;;;;;;4892951;29;20504;-68
2021/12/18 02:35:05;;;;;;;152.70;5.60;;;6.70;99.90;;;;;;4905754;29;20044;-68
2021/12/18 02:37:38;;;;;;;72.38;4.88;;;6.70;99.90;;;;;;4909630;29;20051;-68
2021/12/18 02:42:34;;;;;;;195.98;7.00;;;6.70;99.90;;;;;;4874524;29;20139;-68
2021/12/18 02:45:02;;;;;;;128.30;5.53;;;6.70;99.90;;;;;;4893270;29;20159;-68
2021/12/18 02:47:28;;;;;;;174.35;7.10;;;6.70;99.90;;;;;;4891977;29;20052;-68
2021/12/18 02:49:54;;;;;;;112.82;6.10;;;6.70;99.90;;;;;;4892789;29;20075;-68
2021/12/18 02:52:27;;;;;;;97.25;6.22;;;6.70;99.90;;;;;;4890551;29;20056;-68
2021/12/18 02:54:53;;;;;;;105.80;6.28;;;6.70;99.90;;;;;;4892830;29;20181;-68
2021/12/18 02:57:19;;;;;;;42.60;4.90;;;6.70;99.90;;;;;;4871740;29;20139;-68
2021/12/18 02:59:50;;;;;;;86.00;7.13;;;6.80;99.90;;;;;;4870786;29;20037;-68
2021/12/18 03:02:19;;;;;;;50.25;5.10;;;6.70;99.90;;;;;;4881434;29;20385;-68
2021/12/18 03:04:49;;;;;;;21.23;3.78;;;6.80;99.90;;;;;;4891697;29;20059;-68
2021/12/18 03:07:17;;;;;;;15.98;3.00;;;6.80;99.90;;;;;;4884254;29;20056;-68
2021/12/18 03:19:08;;;;;;;31.80;4.20;;;6.80;99.90;;;;;;4902266;29;20048;-68
2021/12/18 03:25:56;;;;;;;19.95;3.95;;;6.70;99.90;;;;;;4911230;29;20127;-68
2021/12/18 03:28:22;;;;;;;15.82;3.33;;;6.80;99.90;;;;;;4896366;29;20491;-68
2021/12/18 03:30:48;;;;;;;22.80;4.07;;;6.80;99.90;;;;;;4895239;29;20092;-68
2021/12/18 03:33:14;;;;;;;18.67;4.32;;;6.70;99.90;;;;;;4895902;29;20040;-68
2021/12/18 03:35:40;;;;;;;31.52;4.63;;;6.80;99.90;;;;;;4893950;29;20059;-68
2021/12/18 03:38:05;;;;;;;22.85;3.50;;;6.80;99.90;;;;;;4895987;29;20402;-68
2021/12/18 03:40:31;;;;;;;19.08;3.17;;;6.80;99.90;;;;;;4864885;29;20059;-68
2021/12/18 03:42:57;;;;;;;18.25;3.55;;;6.70;99.90;;;;;;4895619;29;20039;-68
2021/12/18 03:45:24;;;;;;;19.40;3.45;;;6.70;99.90;;;;;;4894758;29;20052;-68
2021/12/18 03:47:51;;;;;;;19.73;3.30;;;6.70;99.90;;;;;;4893831;29;20487;-68
2021/12/18 03:50:18;;;;;;;32.15;5.28;;;6.70;99.90;;;;;;4896262;29;20525;-68
2021/12/18 03:52:44;;;;;;;45.08;6.00;;;6.70;99.90;;;;;;4894648;29;20499;-68
2021/12/18 03:55:10;;;;;;;31.25;4.47;;;6.70;99.90;;;;;;4894206;29;20080;-68
2021/12/18 03:57:36;;;;;;;36.50;5.53;;;6.70;99.90;;;;;;4912920;29;20368;-68
2021/12/18 04:00:05;;;;;;;47.15;5.82;;;6.70;99.90;;;;;;4895805;29;20047;-68
2021/12/18 04:02:31;;;;;;;27.50;4.55;;;6.70;99.90;;;;;;4880667;29;20135;-68
2021/12/18 04:04:57;;;;;;;37.08;4.88;;;6.70;99.90;;;;;;4894533;29;20139;-68
2021/12/18 04:07:22;;;;;;;31.65;5.60;;;6.70;99.90;;;;;;4901052;29;20104;-68
2021/12/18 04:09:48;;;;;;;38.85;6.72;;;6.70;99.90;;;;;;4894871;29;20056;-68
2021/12/18 04:12:15;;;;;;;46.40;6.22;;;6.70;99.90;;;;;;4895861;29;20040;-68
2021/12/18 04:14:41;;;;;;;64.15;7.38;;;6.80;99.90;;;;;;4879218;29;20095;-68
2021/12/18 04:17:07;;;;;;;98.60;9.05;;;6.70;99.90;;;;;;4894626;29;20088;-68
2021/12/18 04:19:33;;;;;;;131.68;8.52;;;6.70;99.90;;;;;;4895136;29;20052;-68
2021/12/18 04:21:59;;;;;;;199.85;9.25;;;6.70;99.90;;;;;;4893385;29;20044;-68
2021/12/18 04:24:25;;;;;;;231.27;10.02;;;6.70;99.90;;;;;;4884427;29;20543;-68
2021/12/18 04:26:51;;;;;;;212.77;10.50;;;6.70;99.90;;;;;;4894262;29;20044;-68
2021/12/18 04:29:17;;;;;;;159.43;8.38;;;6.70;99.90;;;;;;4895183;29;20055;-68
2021/12/18 04:31:43;;;;;;;175.40;8.55;;;6.70;99.90;;;;;;4877028;29;20162;-68
2021/12/18 04:34:09;;;;;;;105.07;7.80;;;6.80;99.90;;;;;;4912182;29;20471;-68
2021/12/18 04:36:36;;;;;;;45.70;6.32;;;6.80;99.90;;;;;;4895181;29;20051;-68
2021/12/18 04:39:05;;;;;;;36.08;5.82;;;6.80;99.90;;;;;;4910728;29;20072;-68
2021/12/18 04:41:40;;;;;;;34.10;5.32;;;6.80;99.90;;;;;;4910684;29;20044;-68
2021/12/18 04:44:07;;;;;;;28.73;4.57;;;6.80;99.90;;;;;;4894088;29;20048;-68
2021/12/18 04:46:33;;;;;;;24.13;4.05;;;6.90;99.90;;;;;;4895619;29;20077;-68
2021/12/18 04:48:58;;;;;;;25.77;4.10;;;7.00;99.90;;;;;;4894112;29;20511;-68
2021/12/18 04:51:25;;;;;;;28.02;3.92;;;7.00;99.90;;;;;;4894809;29;20052;-68
2021/12/18 04:53:50;;;;;;;26.27;3.80;;;7.00;99.90;;;;;;4893098;29;20495;-68
2021/12/18 04:56:16;;;;;;;25.50;3.88;;;7.10;99.90;;;;;;4877940;29;20062;-68
2021/12/18 04:58:42;;;;;;;16.75;3.03;;;7.10;99.90;;;;;;4912522;29;20040;-68
2021/12/18 05:01:08;;;;;;;14.65;3.28;;;7.10;99.90;;;;;;4893938;29;20044;-67
2021/12/18 05:03:35;;;;;;;14.57;3.35;;;7.20;99.90;;;;;;4893366;29;20044;-68
2021/12/18 05:06:03;;;;;;;7.15;1.95;;;7.20;99.90;;;;;;4893386;29;20056;-68
2021/12/18 05:08:29;;;;;;;11.27;2.28;;;7.20;99.90;;;;;;4911646;29;20821;-68
2021/12/18 05:10:55;;;;;;;5.75;1.60;;;7.30;99.90;;;;;;4894563;29;20063;-68
2021/12/18 05:13:21;;;;;;;8.93;1.83;;;7.30;99.90;;;;;;4876943;29;20475;-68
2021/12/18 05:15:47;;;;;;;7.20;1.50;;;7.30;99.90;;;;;;4915587;29;20055;-68
2021/12/18 05:18:12;;;;;;;5.78;1.70;;;7.40;99.90;;;;;;4892756;29;20459;-68
2021/12/18 05:20:38;;;;;;;5.55;2.03;;;7.40;99.90;;;;;;4912239;29;20139;-68
2021/12/18 05:23:04;;;;;;;6.88;2.25;;;7.40;99.90;;;;;;4910423;29;20131;-67
2021/12/18 05:25:30;;;;;;;9.10;2.60;;;7.40;99.90;;;;;;4909598;29;20121;-67
2021/12/18 05:27:56;;;;;;;8.55;2.13;;;7.40;99.90;;;;;;4909317;29;20048;-68
2021/12/18 05:30:22;;;;;;;7.07;2.40;;;7.40;99.90;;;;;;4911112;29;20454;-68
2021/12/18 05:32:47;;;;;;;5.25;2.03;;;7.40;99.90;;;;;;4893120;29;20080;-67
2021/12/18 05:35:15;;;;;;;6.18;2.88;;;7.50;99.90;;;;;;4891532;29;20048;-67
2021/12/18 05:38:04;;;;;;;8.40;2.58;;;7.50;99.90;;;;;;4894446;29;20040;-68
2021/12/18 05:40:32;;;;;;;14.07;3.20;;;7.50;99.90;;;;;;4892771;29;20056;-67
2021/12/18 05:42:58;;;;;;;13.50;2.90;;;7.60;99.90;;;;;;4894447;29;20137;-68
2021/12/18 05:45:23;;;;;;;14.63;2.97;;;7.60;99.90;;;;;;4888282;29;20441;-68
2021/12/18 05:47:51;;;;;;;10.25;2.60;;;7.60;99.90;;;;;;4886515;29;20546;-68
2021/12/18 05:50:19;;;;;;;14.65;2.80;;;7.60;99.90;;;;;;4910843;29;20115;-68
2021/12/18 05:52:46;;;;;;;10.02;2.30;;;7.60;99.90;;;;;;4877019;29;20453;-68
2021/12/18 05:55:14;;;;;;;7.65;2.30;;;7.60;99.90;;;;;;4911349;29;20090;-68
2021/12/18 05:57:41;;;;;;;9.35;2.10;;;7.60;99.90;;;;;;4876056;29;20048;-68
2021/12/18 06:00:11;;;;;;;15.23;1.80;;;7.70;99.90;;;;;;4911254;29;20107;-68
2021/12/18 06:02:37;;;;;;;12.85;2.30;;;7.70;99.90;;;;;;4893024;29;20495;-67
2021/12/18 06:05:04;;;;;;;9.43;2.30;;;7.70;99.90;;;;;;4893541;29;20294;-67
2021/12/18 06:07:38;;;;;;;15.13;2.55;;;7.70;99.90;;;;;;4892273;29;20055;-68
2021/12/18 06:10:04;;;;;;;15.77;3.05;;;7.70;99.90;;;;;;4891897;29;20055;-68
2021/12/18 06:12:32;;;;;;;14.05;3.00;;;7.70;99.90;;;;;;4909710;29;20539;-68
2021/12/18 06:14:58;;;;;;;13.15;3.20;;;7.80;99.90;;;;;;4892328;29;20048;-68
2021/12/18 06:17:23;;;;;;;21.55;4.10;;;7.80;99.90;;;;;;4877252;29;20059;-68
2021/12/18 06:19:49;;;;;;;18.38;4.55;;;7.70;99.90;;;;;;4908133;29;20043;-68
2021/12/18 06:22:15;;;;;;;26.52;6.28;;;7.70;99.90;;;;;;4910479;29;20075;-68
2021/12/18 06:24:41;;;;;;;22.65;5.60;;;7.70;99.90;;;;;;4893526;29;20502;-68
2021/12/18 06:27:06;;;;;;;20.48;5.35;;;7.70;99.90;;;;;;4892383;29;20059;-67
2021/12/18 06:29:34;;;;;;;25.27;5.90;;;7.70;99.90;;;;;;4891708;29;20087;-68
2021/12/18 06:32:00;;;;;;;22.42;5.40;;;7.80;99.90;;;;;;4892266;29;20104;-68
2021/12/18 06:34:25;;;;;;;21.50;5.70;;;7.80;99.90;;;;;;4877624;29;20048;-68
2021/12/18 06:36:52;;;;;;;25.73;5.32;;;7.80;99.90;;;;;;4909312;29;20052;-67
2021/12/18 06:39:17;;;;;;;32.10;5.90;;;7.80;99.90;;;;;;4893046;29;20054;-68
2021/12/18 06:41:43;;;;;;;25.88;5.72;;;7.80;99.90;;;;;;4893147;29;20395;-68
2021/12/18 06:44:10;;;;;;;22.30;4.80;;;7.80;99.90;;;;;;4879709;29;20384;-68
2021/12/18 06:46:37;;;;;;;19.42;4.95;;;7.80;99.90;;;;;;4914031;29;20040;-68
2021/12/18 06:49:04;;;;;;;22.20;5.40;;;7.80;99.90;;;;;;4895868;29;20991;-68
2021/12/18 06:51:30;;;;;;;20.40;5.05;;;7.80;99.90;;;;;;4896919;29;20100;-68
2021/12/18 06:53:56;;;;;;;19.48;4.72;;;7.80;99.90;;;;;;4895886;29;20048;-68
2021/12/18 06:56:22;;;;;;;19.38;4.30;;;7.70;99.90;;;;;;4896847;29;20059;-68
2021/12/18 06:58:48;;;;;;;20.52;3.88;;;7.80;99.90;;;;;;4896379;29;20048;-67
2021/12/18 07:01:13;;;;;;;18.38;3.20;;;7.70;99.90;;;;;;4895840;29;20116;-68
2021/12/18 07:03:39;;;;;;;17.88;2.90;;;7.70;99.90;;;;;;4896684;29;20688;-68
2021/12/18 07:06:06;;;;;;;21.08;3.08;;;7.70;99.90;;;;;;4888315;29;20060;-67
2021/12/18 07:08:31;;;;;;;14.93;2.25;;;7.70;99.90;;;;;;4895712;29;20135;-68
2021/12/18 07:10:58;;;;;;;15.20;2.05;;;7.70;99.90;;;;;;4894581;29;20169;-68
2021/12/18 07:13:24;;;;;;;13.55;1.92;;;7.60;99.90;;;;;;4896779;29;20060;-68
2021/12/18 07:15:50;;;;;;;20.58;2.22;;;7.70;99.90;;;;;;4879834;29;20052;-68
2021/12/18 07:18:17;;;;;;;18.55;2.10;;;7.70;99.90;;;;;;4896072;29;20044;-68
2021/12/18 07:20:42;;;;;;;13.15;1.98;;;7.70;99.90;;;;;;4877738;29;20045;-68
2021/12/18 07:23:08;;;;;;;12.85;1.77;;;7.70;99.90;;;;;;4863183;29;20068;-68
2021/12/18 07:25:34;;;;;;;13.00;1.90;;;7.70;99.90;;;;;;4886681;29;20040;-68
2021/12/18 07:27:59;;;;;;;13.95;1.83;;;7.70;99.90;;;;;;4894477;29;20518;-67
2021/12/18 07:30:25;;;;;;;12.80;1.88;;;7.70;99.90;;;;;;4864406;29;20092;-68
2021/12/18 07:32:51;;;;;;;11.48;1.77;;;7.70;99.90;;;;;;4892005;29;20064;-68
2021/12/18 07:35:17;;;;;;;13.30;2.13;;;7.70;99.90;;;;;;4896733;29;20052;-68
2021/12/18 07:37:43;;;;;;;13.63;2.17;;;7.70;99.90;;;;;;4910969;29;20051;-68
2021/12/18 07:40:10;;;;;;;27.42;3.17;;;7.80;99.90;;;;;;4895008;29;20088;-68
2021/12/18 07:42:36;;;;;;;7.20;1.85;;;7.70;99.90;;;;;;4894331;29;20059;-68
2021/12/18 07:45:03;;;;;;;13.02;1.67;;;7.80;99.90;;;;;;4894126;29;20407;-68
2021/12/18 07:47:29;;;;;;;10.73;1.63;;;7.80;99.90;;;;;;4895544;29;20084;-68
2021/12/18 07:49:54;;;;;;;13.77;1.85;;;7.80;99.90;;;;;;4878384;29;20068;-68
2021/12/18 07:52:21;;;;;;;11.93;1.63;;;7.80;99.90;;;;;;4895975;29;20046;-68
2021/12/18 07:54:48;;;;;;;20.33;2.42;;;7.80;99.90;;;;;;4908707;29;20079;-68
2021/12/18 07:57:14;;;;;;;15.10;2.03;;;7.80;99.90;;;;;;4894581;29;20044;-68
2021/12/18 07:59:40;;;;;;;11.82;2.40;;;7.80;99.90;;;;;;4894611;29;20558;-68
2021/12/18 08:02:06;;;;;;;14.55;1.98;;;7.90;99.90;;;;;;4893010;29;21228;-68
2021/12/18 08:04:33;;;;;;;16.45;3.25;;;7.90;99.90;;;;;;4907421;29;20074;-68
2021/12/18 08:06:59;;;;;;;15.70;2.33;;;7.90;99.90;;;;;;4893242;29;20084;-68
2021/12/18 08:09:25;;;;;;;11.52;2.03;;;7.90;99.90;;;;;;4861034;29;20596;-68
2021/12/18 08:11:50;;;;;;;16.77;2.28;;;7.90;99.90;;;;;;4890446;29;20154;-68
2021/12/18 08:14:16;;;;;;;16.40;2.20;;;7.90;99.90;;;;;;4894330;29;20145;-68
2021/12/18 08:16:42;;;;;;;13.73;2.00;;;7.90;99.90;;;;;;4876365;29;20052;-68
2021/12/18 08:19:08;;;;;;;21.75;2.28;;;7.90;99.90;;;;;;4893699;29;20048;-68
2021/12/18 08:21:34;;;;;;;12.60;1.70;;;7.90;99.90;;;;;;4897030;29;20204;-68
2021/12/18 08:24:00;;;;;;;22.50;2.25;;;7.80;99.90;;;;;;4893534;29;20048;-68
2021/12/18 08:26:25;;;;;;;10.23;1.88;;;7.80;99.90;;;;;;4878454;29;20059;-68
2021/12/18 08:28:51;;;;;;;12.20;1.90;;;7.70;99.90;;;;;;4891687;29;20439;-68
2021/12/18 08:31:17;;;;;;;26.33;2.22;;;7.70;99.90;;;;;;4894600;29;20075;-68
2021/12/18 08:33:44;;;;;;;22.48;1.90;;;7.70;99.90;;;;;;4893989;29;20055;-68
2021/12/18 08:36:10;;;;;;;19.98;2.70;;;7.70;99.90;;;;;;4893811;29;20115;-68
2021/12/18 08:38:36;;;;;;;17.45;2.72;;;7.70;99.90;;;;;;4876011;29;20071;-68
2021/12/18 08:41:02;;;;;;;16.55;2.00;;;7.80;99.90;;;;;;4890476;29;20078;-68
2021/12/18 08:43:28;;;;;;;14.27;2.40;;;7.70;99.90;;;;;;4891420;29;20524;-68
2021/12/18 08:45:54;;;;;;;18.05;1.92;;;7.80;99.90;;;;;;4891882;29;20479;-68
2021/12/18 08:48:21;;;;;;;10.93;1.98;;;7.80;99.90;;;;;;4891517;29;20539;-68
2021/12/18 08:50:47;;;;;;;11.85;1.55;;;7.90;99.90;;;;;;4890207;29;20122;-68
2021/12/18 08:53:14;;;;;;;11.40;1.60;;;7.90;99.90;;;;;;4859905;29;20041;-68
2021/12/18 08:55:46;;;;;;;17.83;1.88;;;7.90;99.90;;;;;;4891792;29;20559;-68
2021/12/18 08:58:12;;;;;;;15.73;1.90;;;7.90;99.90;;;;;;4908173;29;20044;-68
2021/12/18 09:00:38;;;;;;;21.45;1.80;;;8.00;99.90;;;;;;4875879;29;20538;-68
2021/12/18 09:03:04;;;;;;;12.07;1.50;;;8.00;99.90;;;;;;4908259;29;20091;-68
2021/12/18 09:05:30;;;;;;;12.85;2.03;;;8.00;99.90;;;;;;4909300;29;20055;-68
2021/12/18 09:07:56;;;;;;;14.75;2.55;;;8.00;99.90;;;;;;4890308;29;20479;-68
2021/12/18 09:10:23;;;;;;;6.82;1.58;;;8.00;99.90;;;;;;4905969;29;20071;-69
2021/12/18 09:12:50;;;;;;;11.68;1.52;;;8.00;99.90;;;;;;4889746;29;20295;-68
2021/12/18 09:15:16;;;;;;;15.57;1.90;;;8.10;99.90;;;;;;4875531;29;20095;-68
2021/12/18 09:17:42;;;;;;;11.52;2.13;;;8.10;99.90;;;;;;4892031;29;20043;-69
2021/12/18 09:20:09;;;;;;;8.43;1.60;;;8.10;99.90;;;;;;4890596;29;20059;-68
2021/12/18 09:22:34;;;;;;;8.80;1.90;;;8.10;99.90;;;;;;4893035;29;20059;-68
2021/12/18 09:25:05;;;;;;;11.77;1.88;;;8.10;99.90;;;;;;4877412;29;20407;-68
2021/12/18 09:27:31;;;;;;;14.50;1.95;;;8.20;99.10;;;;;;4893773;29;20040;-68
2021/12/18 09:29:57;;;;;;;16.58;2.08;;;8.20;99.00;;;;;;4893983;29;20398;-68
2021/12/18 09:32:24;;;;;;;13.35;1.70;;;8.20;98.70;;;;;;4892630;29;20139;-68
2021/12/18 09:34:49;;;;;;;15.75;1.95;;;8.30;98.40;;;;;;4893988;29;20056;-68
2021/12/18 09:37:15;;;;;;;9.05;1.50;;;8.30;98.50;;;;;;4891641;29;20070;-68
2021/12/18 09:39:41;;;;;;;20.42;2.53;;;8.30;98.60;;;;;;4886960;29;20044;-68
2021/12/18 09:42:07;;;;;;;18.15;2.15;;;8.30;98.50;;;;;;4900724;29;20915;-67
2021/12/18 09:44:35;;;;;;;13.05;1.75;;;8.30;98.30;;;;;;4891500;29;20051;-68
2021/12/18 09:47:03;;;;;;;21.83;2.20;;;8.30;98.10;;;;;;4887627;29;20056;-68
2021/12/18 09:49:29;;;;;;;13.45;1.75;;;8.40;98.10;;;;;;4871799;29;20052;-68
2021/12/18 09:51:56;;;;;;;15.77;2.10;;;8.40;97.70;;;;;;4907214;29;20044;-68
2021/12/18 09:54:23;;;;;;;19.55;5.38;;;8.40;97.70;;;;;;4890959;29;20127;-68
2021/12/18 09:56:49;;;;;;;16.20;2.00;;;8.40;97.40;;;;;;4910386;29;20531;-68
2021/12/18 09:59:15;;;;;;;17.27;2.03;;;8.50;97.50;;;;;;4890573;29;20394;-68
2021/12/18 10:01:41;;;;;;;17.63;2.03;;;8.40;97.40;;;;;;4878014;29;20399;-68
2021/12/18 10:04:28;;;;;;;16.17;2.28;;;8.40;97.10;;;;;;4892655;29;20055;-68
2021/12/18 10:06:54;;;;;;;13.95;2.05;;;8.50;96.80;;;;;;4899593;29;20427;-68
2021/12/18 10:09:20;;;;;;;18.70;2.13;;;8.50;96.30;;;;;;4894208;29;20044;-68
2021/12/18 10:11:56;;;;;;;21.50;2.13;;;8.50;96.50;;;;;;4890381;29;20048;-68
2021/12/18 10:15:03;;;;;;;18.00;2.35;;;8.50;96.50;;;;;;4878247;29;20054;-68
2021/12/18 10:17:31;;;;;;;21.70;2.78;;;8.50;96.10;;;;;;4882936;29;20064;-67
2021/12/18 10:20:09;;;;;;;9.27;1.67;;;8.50;96.40;;;;;;4907907;29;20047;-67
2021/12/18 10:22:50;;;;;;;16.52;2.55;;;8.60;96.00;;;;;;4885937;29;20087;-68
2021/12/18 10:25:20;;;;;;;10.75;1.50;;;8.60;95.80;;;;;;4892318;29;20066;-68
2021/12/18 10:28:17;;;;;;;14.43;2.03;;;8.60;95.10;;;;;;4893023;29;20047;-68
2021/12/18 10:30:51;;;;;;;12.68;1.90;;;8.70;94.00;;;;;;4891457;29;20515;-68
2021/12/18 10:33:19;;;;;;;10.32;2.25;;;8.70;93.50;;;;;;4881029;29;20119;-68
2021/12/18 10:35:51;;;;;;;15.30;2.80;;;8.70;93.20;;;;;;4877513;29;20107;-68
2021/12/18 10:38:36;;;;;;;11.90;1.98;;;8.70;93.60;;;;;;4909335;29;20080;-68
2021/12/18 10:41:01;;;;;;;13.95;2.80;;;8.60;93.40;;;;;;4892377;29;20119;-68
2021/12/18 10:43:58;;;;;;;12.85;1.90;;;8.60;93.60;;;;;;4876885;29;20521;-68
2021/12/18 10:46:24;;;;;;;11.35;1.90;;;8.50;93.90;;;;;;4891840;29;20107;-68
2021/12/18 10:48:59;;;;;;;17.48;2.53;;;8.50;94.30;;;;;;4877059;29;20048;-68
2021/12/18 10:51:27;;;;;;;13.23;2.45;;;8.50;94.80;;;;;;4891496;29;20051;-68
2021/12/18 10:53:59;;;;;;;15.15;2.20;;;8.50;95.10;;;;;;4906365;29;20036;-68
2021/12/18 10:56:46;;;;;;;16.20;2.70;;;8.50;95.50;;;;;;4892999;29;20444;-67
2021/12/18 10:59:45;;;;;;;19.75;2.83;;;8.60;95.70;;;;;;4891817;29;20479;-68
2021/12/18 11:02:13;;;;;;;16.25;2.08;;;8.60;95.90;;;;;;4875360;29;20052;-68
2021/12/18 11:04:42;;;;;;;15.13;2.05;;;8.60;95.70;;;;;;4891594;29;20060;-68
2021/12/18 11:07:22;;;;;;;16.73;2.08;;;8.70;95.80;;;;;;4892769;29;20521;-67
2021/12/18 11:10:11;;;;;;;11.85;2.38;;;8.70;95.60;;;;;;4892874;29;20104;-68
2021/12/18 11:15:19;;;;;;;11.82;2.08;;;8.70;94.80;;;;;;4901300;29;20195;-68
2021/12/18 11:17:46;;;;;;;15.57;1.95;;;8.80;94.90;;;;;;4891513;29;20062;-68
2021/12/18 11:20:13;;;;;;;14.02;2.88;;;8.80;94.50;;;;;;4882456;29;20052;-68
2021/12/18 11:22:41;;;;;;;8.23;1.83;;;8.80;93.80;;;;;;4892143;29;20036;-68
2021/12/18 11:25:10;;;;;;;13.10;2.00;;;8.80;94.10;;;;;;4905875;29;20127;-68
2021/12/18 11:27:37;;;;;;;9.52;1.50;;;8.70;94.30;;;;;;4893351;29;20048;-68
2021/12/18 11:30:10;;;;;;;11.95;1.98;;;8.70;93.90;;;;;;4891725;29;20040;-68
2021/12/18 11:32:44;;;;;;;17.05;2.50;;;8.70;93.50;;;;;;4896587;29;20076;-68
2021/12/18 11:35:11;;;;;;;18.02;2.08;;;8.70;93.30;;;;;;4894425;29;20044;-68
2021/12/18 11:37:55;;;;;;;10.80;1.67;;;8.80;93.90;;;;;;4895557;29;20040;-68
2021/12/18 11:40:29;;;;;;;12.25;1.73;;;8.80;93.50;;;;;;4896363;29;20135;-68
2021/12/18 11:42:55;;;;;;;13.95;2.10;;;8.80;93.40;;;;;;4894797;29;20051;-67
2021/12/18 11:45:35;;;;;;;15.18;1.77;;;8.90;93.90;;;;;;4891627;29;20327;-68
2021/12/18 11:48:02;;;;;;;19.23;2.05;;;8.80;93.20;;;;;;4894880;29;20040;-68
2021/12/18 11:50:33;;;;;;;9.50;2.20;;;8.70;92.40;;;;;;4895447;29;20040;-68
2021/12/18 11:53:02;;;;;;;9.77;2.20;;;8.70;92.60;;;;;;4912132;29;20075;-67
2021/12/18 11:55:33;;;;;;;12.40;2.15;;;8.70;92.40;;;;;;4878193;29;20050;-68
2021/12/18 11:58:12;;;;;;;13.43;2.42;;;8.80;93.20;;;;;;4894670;29;20575;-67
2021/12/18 12:00:43;;;;;;;12.10;2.08;;;8.80;93.80;;;;;;4894661;29;20054;-68
2021/12/18 12:03:12;;;;;;;9.07;2.28;;;8.70;93.10;;;;;;4912950;29;20051;-68
2021/12/18 12:05:47;;;;;;;12.82;2.85;;;8.70;93.00;;;;;;4888157;29;20049;-68
2021/12/18 12:08:41;;;;;;;10.57;2.10;;;8.80;93.20;;;;;;4888147;29;20060;-68
2021/12/18 12:11:35;;;;;;;10.73;1.75;;;8.80;93.20;;;;;;4880200;29;20092;-68
2021/12/18 12:14:20;;;;;;;12.38;2.35;;;8.80;93.00;;;;;;4893836;29;20143;-68
2021/12/18 12:16:46;;;;;;;14.27;2.38;;;8.80;93.10;;;;;;4887947;29;20051;-68
2021/12/18 12:19:19;;;;;;;13.13;2.13;;;8.80;93.20;;;;;;4895991;29;20535;-68
2021/12/18 12:21:47;;;;;;;8.45;1.88;;;8.80;92.80;;;;;;4893577;29;20479;-68
2021/12/18 12:24:16;;;;;;;14.18;2.55;;;8.80;93.10;;;;;;4912389;29;20095;-68
2021/12/18 12:26:42;;;;;;;8.10;1.70;;;8.80;92.90;;;;;;4892935;29;20056;-68
2021/12/18 12:29:10;;;;;;;13.93;2.35;;;8.90;93.10;;;;;;4911499;29;20056;-68
2021/12/18 12:31:37;;;;;;;11.48;1.88;;;8.90;92.80;;;;;;4895764;29;20048;-68
2021/12/18 12:34:33;;;;;;;13.63;2.47;;;8.90;92.90;;;;;;4892948;29;20040;-68
2021/12/18 12:37:23;;;;;;;13.20;1.70;;;8.90;93.10;;;;;;4909378;29;20056;-68
2021/12/18 12:40:15;;;;;;;16.13;2.50;;;8.80;93.00;;;;;;4878458;29;20114;-68
2021/12/18 12:43:13;;;;;;;12.38;1.88;;;8.80;93.10;;;;;;4893658;29;20450;-68
2021/12/18 12:45:41;;;;;;;14.23;2.85;;;8.80;93.20;;;;;;4905729;29;20124;-68
2021/12/18 12:48:08;;;;;;;15.32;2.67;;;8.80;93.30;;;;;;4876459;29;20100;-68
2021/12/18 12:50:36;;;;;;;16.02;2.00;;;8.90;93.50;;;;;;4910383;29;20095;-68
2021/12/18 12:53:07;;;;;;;11.85;2.38;;;8.90;93.30;;;;;;4907709;29;20379;-68
2021/12/18 12:55:42;;;;;;;12.65;2.33;;;8.90;93.40;;;;;;4892998;29;20056;-68
2021/12/18 12:58:38;;;;;;;12.10;2.63;;;8.90;93.40;;;;;;4892829;29;20056;-68
2021/12/18 13:01:04;;;;;;;11.80;2.58;;;8.90;93.30;;;;;;4879630;29;20082;-67
2021/12/18 13:03:34;;;;;;;14.43;3.40;;;8.90;93.60;;;;;;4893651;29;20050;-68
2021/12/18 13:06:06;;;;;;;14.70;2.08;;;8.90;93.60;;;;;;4893608;29;20052;-68
2021/12/18 13:08:40;;;;;;;11.88;2.75;;;8.90;93.70;;;;;;4892172;29;20071;-68
2021/12/18 13:11:12;;;;;;;12.82;2.63;;;8.90;93.70;;;;;;4894763;29;20067;-68
2021/12/18 13:13:37;;;;;;;20.25;3.47;;;8.90;94.00;;;;;;4912476;29;20395;-68
2021/12/18 13:16:09;;;;;;;15.23;2.78;;;8.90;93.80;;;;;;4891414;29;20054;-67
2021/12/18 13:18:41;;;;;;;12.63;2.67;;;8.90;93.90;;;;;;4893143;29;20044;-65
2021/12/18 13:21:20;;;;;;;18.92;2.60;;;8.90;94.00;;;;;;4893198;29;20151;-66
2021/12/18 13:23:53;;;;;;;14.35;2.47;;;8.90;94.20;;;;;;4912039;29;20044;-66
2021/12/18 13:26:27;;;;;;;17.02;2.70;;;8.90;94.20;;;;;;4892434;29;20047;-66
2021/12/18 13:29:16;;;;;;;12.38;2.35;;;8.90;94.40;;;;;;4910288;29;20045;-66
2021/12/18 13:31:53;;;;;;;13.85;2.45;;;8.80;94.30;;;;;;4893265;29;20102;-66
2021/12/18 13:34:22;;;;;;;12.88;2.40;;;8.80;94.40;;;;;;4893345;29;20036;-66
2021/12/18 13:36:56;;;;;;;11.52;2.22;;;8.80;94.50;;;;;;4894454;29;20062;-66
2021/12/18 13:39:24;;;;;;;12.93;2.65;;;8.80;94.40;;;;;;4891138;29;20101;-67
2021/12/18 13:41:58;;;;;;;20.52;2.72;;;8.80;94.40;;;;;;4894304;29;20060;-66
2021/12/18 13:44:24;;;;;;;9.88;2.53;;;8.80;94.30;;;;;;4910699;29;20044;-67